Portada
METAR-TAF:

METAR-TAF

Aeroports :

Aeroport de la Llavanera

Perpinyà, França

latitud: 42-44N, longitud: 002-52E, altitud: 43 m

Observació

L'informe es va fer fa 25 minuts, a les 04:30 UTC
Vent 4 kt del Sud-Oest
Temperatura 8°C
Humitat 71%
Pressió 1031 hPa
Visibilitat 10 km o més
sense núvols per sota de 1500 mi sense presència de cumulonimbus.

METAR: LFMP 230430Z AUTO 22004KT CAVOK 08/03 Q1031 NOSIG

Hora: 05:55 (04:55 UTC)

Pronòstic

L'informe es va fer fa 2 hores i 55 minuts, a les 02:00 UTC
Pronòstic vàlid del 23 a les 03 UTC al 24 a les 03 UTC
Vent 5 kt del Oest/Sud-Oest
Visibilitat 10 km o més
sense núvols per sota de 1500 mi sense presència de cumulonimbus.
Temporalment
l' 23 a les 18 UTC al 23 a les 24 UTC
Vent 10 kt del Oest/Nord-Oest

TAF: LFMP 230200Z 2303/2403 24005KT CAVOK TEMPO 2318/2324 30010KT

Observacions i pronòstics meteorològics de més de 4000 aeroports (METAR i TAF).

Les estacions disponibles són els punts grocs i vermells al mapa.

Posi el ratolí al punt desitjat per veure el nom de l'estació.

Feu clic per veure les observacions i els pronòstics meteorològics.

Per canviar el mapa: feu clic els botons verds amb una creu de color negre per apropar; al botó verd amb un guió per allunyar la imatge; o en les fletxes verdes per a mapes adjacents.


METAR-TAF: